Pioneer, California
Current Conditions -  °F | °C
As of 10:55 PM on Saturday 25 Oct 2014 (Local Time) from KPVF Reporting Station
Overcast Overcast  
Wind Chill: 10°   Ceiling: 800
Heat Index: 10°   Visibility: 10mi
Dew Point:   Wind: 6mph
Humidity: 87%   Direction: 150°SSE
Pressure: 30.17"   Gusts: NA
Location:  38.43°N, 120.57°W
Report Text: KPVF 260555Z AUTO 15005KT 10SM OVC008 10/08 A3017 RMK AO1
Loading
Personal Weather Stations






























Interactive Weather Map
Tropical Storm Tracking
New forecast layout! Learn more

10-Day Weather Forecast

Advertisements
Track Severe Weather on mobile